sensor_id;sensor_type;location;lat;lon;timestamp;temperature;humidity
16838;DHT22;19510;54.486;9.046;2022-10-16T00:01:05;13.20;99.90
16838;DHT22;19510;54.486;9.046;2022-10-16T00:03:33;13.30;99.90
16838;DHT22;19510;54.486;9.046;2022-10-16T00:06:00;13.30;99.90
16838;DHT22;19510;54.486;9.046;2022-10-16T00:08:26;13.20;99.90
16838;DHT22;19510;54.486;9.046;2022-10-16T00:10:52;13.40;99.90
16838;DHT22;19510;54.486;9.046;2022-10-16T00:13:17;13.20;99.90
16838;DHT22;19510;54.486;9.046;2022-10-16T00:15:45;13.30;99.90
16838;DHT22;19510;54.486;9.046;2022-10-16T00:18:12;13.30;99.90
16838;DHT22;19510;54.486;9.046;2022-10-16T00:20:37;13.30;99.90
16838;DHT22;19510;54.486;9.046;2022-10-16T00:23:04;13.30;99.90
16838;DHT22;19510;54.486;9.046;2022-10-16T00:25:31;13.30;99.90
16838;DHT22;19510;54.486;9.046;2022-10-16T00:27:59;13.30;99.90
16838;DHT22;19510;54.486;9.046;2022-10-16T00:30:25;13.30;99.90
16838;DHT22;19510;54.486;9.046;2022-10-16T00:32:53;13.30;99.90
16838;DHT22;19510;54.486;9.046;2022-10-16T00:35:18;13.30;99.90
16838;DHT22;19510;54.486;9.046;2022-10-16T00:37:44;13.30;99.90
16838;DHT22;19510;54.486;9.046;2022-10-16T00:40:10;13.30;99.90
16838;DHT22;19510;54.486;9.046;2022-10-16T00:42:35;13.20;99.90
16838;DHT22;19510;54.486;9.046;2022-10-16T00:45:02;13.30;99.90
16838;DHT22;19510;54.486;9.046;2022-10-16T00:50:31;13.20;99.90
16838;DHT22;19510;54.486;9.046;2022-10-16T00:52:59;13.20;99.90
16838;DHT22;19510;54.486;9.046;2022-10-16T00:55:26;13.20;99.90
16838;DHT22;19510;54.486;9.046;2022-10-16T00:57:53;13.30;99.90
16838;DHT22;19510;54.486;9.046;2022-10-16T01:00:25;13.20;99.90
16838;DHT22;19510;54.486;9.046;2022-10-16T01:03:01;13.30;99.90
16838;DHT22;19510;54.486;9.046;2022-10-16T01:05:35;13.10;99.90
16838;DHT22;19510;54.486;9.046;2022-10-16T01:08:17;13.20;99.90
16838;DHT22;19510;54.486;9.046;2022-10-16T01:11:09;13.20;99.90
16838;DHT22;19510;54.486;9.046;2022-10-16T01:13:46;13.20;99.90
16838;DHT22;19510;54.486;9.046;2022-10-16T01:16:48;13.20;99.90
16838;DHT22;19510;54.486;9.046;2022-10-16T01:19:23;13.20;99.90
16838;DHT22;19510;54.486;9.046;2022-10-16T01:21:52;13.20;99.90
16838;DHT22;19510;54.486;9.046;2022-10-16T01:24:40;13.20;99.90
16838;DHT22;19510;54.486;9.046;2022-10-16T01:35:08;13.20;99.90
16838;DHT22;19510;54.486;9.046;2022-10-16T01:37:35;13.20;99.90
16838;DHT22;19510;54.486;9.046;2022-10-16T01:40:06;13.20;99.90
16838;DHT22;19510;54.486;9.046;2022-10-16T01:42:40;13.20;99.90
16838;DHT22;19510;54.486;9.046;2022-10-16T01:45:07;13.20;99.90
16838;DHT22;19510;54.486;9.046;2022-10-16T01:47:37;13.10;99.90
16838;DHT22;19510;54.486;9.046;2022-10-16T01:50:05;13.10;99.90
16838;DHT22;19510;54.486;9.046;2022-10-16T01:52:35;13.20;99.90
16838;DHT22;19510;54.486;9.046;2022-10-16T01:55:04;13.20;99.90
16838;DHT22;19510;54.486;9.046;2022-10-16T01:57:32;13.10;99.90
16838;DHT22;19510;54.486;9.046;2022-10-16T02:00:03;13.10;99.90
16838;DHT22;19510;54.486;9.046;2022-10-16T02:02:30;13.10;99.90
16838;DHT22;19510;54.486;9.046;2022-10-16T02:05:14;13.20;99.90
16838;DHT22;19510;54.486;9.046;2022-10-16T02:07:44;13.10;99.90
16838;DHT22;19510;54.486;9.046;2022-10-16T02:10:10;13.10;99.90
16838;DHT22;19510;54.486;9.046;2022-10-16T02:12:38;13.10;99.90
16838;DHT22;19510;54.486;9.046;2022-10-16T02:15:06;13.10;99.90
16838;DHT22;19510;54.486;9.046;2022-10-16T02:17:32;13.10;99.90
16838;DHT22;19510;54.486;9.046;2022-10-16T02:19:59;13.00;99.90
16838;DHT22;19510;54.486;9.046;2022-10-16T02:22:29;13.10;99.90
16838;DHT22;19510;54.486;9.046;2022-10-16T02:24:59;13.00;99.90
16838;DHT22;19510;54.486;9.046;2022-10-16T02:30:21;13.00;99.90
16838;DHT22;19510;54.486;9.046;2022-10-16T02:32:48;13.00;99.90
16838;DHT22;19510;54.486;9.046;2022-10-16T02:35:17;13.10;99.90
16838;DHT22;19510;54.486;9.046;2022-10-16T02:37:44;13.10;99.90
16838;DHT22;19510;54.486;9.046;2022-10-16T02:40:11;13.00;99.90
16838;DHT22;19510;54.486;9.046;2022-10-16T02:42:39;13.00;99.90
16838;DHT22;19510;54.486;9.046;2022-10-16T02:45:07;13.00;99.90
16838;DHT22;19510;54.486;9.046;2022-10-16T02:47:33;13.00;99.90
16838;DHT22;19510;54.486;9.046;2022-10-16T02:49:59;13.00;99.90
16838;DHT22;19510;54.486;9.046;2022-10-16T02:52:25;12.90;99.90
16838;DHT22;19510;54.486;9.046;2022-10-16T02:54:50;12.90;99.90
16838;DHT22;19510;54.486;9.046;2022-10-16T02:57:16;13.00;99.90
16838;DHT22;19510;54.486;9.046;2022-10-16T02:59:42;12.90;99.90
16838;DHT22;19510;54.486;9.046;2022-10-16T03:02:08;13.00;99.90
16838;DHT22;19510;54.486;9.046;2022-10-16T03:04:33;13.00;99.90
16838;DHT22;19510;54.486;9.046;2022-10-16T03:06:59;12.90;99.90
16838;DHT22;19510;54.486;9.046;2022-10-16T03:09:25;12.90;99.90
16838;DHT22;19510;54.486;9.046;2022-10-16T03:11:51;12.90;99.90
16838;DHT22;19510;54.486;9.046;2022-10-16T03:14:17;12.90;99.90
16838;DHT22;19510;54.486;9.046;2022-10-16T03:16:43;12.90;99.90
16838;DHT22;19510;54.486;9.046;2022-10-16T03:19:08;12.90;99.90
16838;DHT22;19510;54.486;9.046;2022-10-16T03:21:34;12.90;99.90
16838;DHT22;19510;54.486;9.046;2022-10-16T03:23:59;12.90;99.90
16838;DHT22;19510;54.486;9.046;2022-10-16T03:26:25;12.90;99.90
16838;DHT22;19510;54.486;9.046;2022-10-16T03:28:51;12.90;99.90
16838;DHT22;19510;54.486;9.046;2022-10-16T03:31:16;12.90;99.90
16838;DHT22;19510;54.486;9.046;2022-10-16T03:33:44;12.80;99.90
16838;DHT22;19510;54.486;9.046;2022-10-16T03:36:10;12.90;99.90
16838;DHT22;19510;54.486;9.046;2022-10-16T03:38:35;12.80;99.90
16838;DHT22;19510;54.486;9.046;2022-10-16T03:41:01;12.90;99.90
16838;DHT22;19510;54.486;9.046;2022-10-16T03:43:27;12.90;99.90
16838;DHT22;19510;54.486;9.046;2022-10-16T03:45:52;12.90;99.90
16838;DHT22;19510;54.486;9.046;2022-10-16T03:48:19;12.80;99.90
16838;DHT22;19510;54.486;9.046;2022-10-16T03:50:44;12.80;99.90
16838;DHT22;19510;54.486;9.046;2022-10-16T03:53:11;12.80;99.90
16838;DHT22;19510;54.486;9.046;2022-10-16T03:55:37;12.80;99.90
16838;DHT22;19510;54.486;9.046;2022-10-16T03:58:02;12.80;99.90
16838;DHT22;19510;54.486;9.046;2022-10-16T04:00:28;13.00;99.90
16838;DHT22;19510;54.486;9.046;2022-10-16T04:02:54;12.80;99.90
16838;DHT22;19510;54.486;9.046;2022-10-16T04:05:19;12.80;99.90
16838;DHT22;19510;54.486;9.046;2022-10-16T04:07:45;12.80;99.90
16838;DHT22;19510;54.486;9.046;2022-10-16T04:10:11;12.70;99.90
16838;DHT22;19510;54.486;9.046;2022-10-16T04:12:36;12.80;99.90
16838;DHT22;19510;54.486;9.046;2022-10-16T04:15:02;12.80;99.90
16838;DHT22;19510;54.486;9.046;2022-10-16T04:17:28;12.80;99.90
16838;DHT22;19510;54.486;9.046;2022-10-16T04:19:53;12.80;99.90
16838;DHT22;19510;54.486;9.046;2022-10-16T04:22:19;12.90;99.90
16838;DHT22;19510;54.486;9.046;2022-10-16T04:24:44;13.00;99.90
16838;DHT22;19510;54.486;9.046;2022-10-16T04:27:10;12.90;99.90
16838;DHT22;19510;54.486;9.046;2022-10-16T04:29:36;12.90;99.90
16838;DHT22;19510;54.486;9.046;2022-10-16T04:32:01;12.90;99.90
16838;DHT22;19510;54.486;9.046;2022-10-16T04:34:27;13.10;99.90
16838;DHT22;19510;54.486;9.046;2022-10-16T04:36:53;13.00;99.90
16838;DHT22;19510;54.486;9.046;2022-10-16T04:39:18;13.00;99.90
16838;DHT22;19510;54.486;9.046;2022-10-16T04:41:44;13.10;99.90
16838;DHT22;19510;54.486;9.046;2022-10-16T04:44:10;13.10;99.90
16838;DHT22;19510;54.486;9.046;2022-10-16T04:46:35;13.10;99.90
16838;DHT22;19510;54.486;9.046;2022-10-16T04:49:01;13.10;99.90
16838;DHT22;19510;54.486;9.046;2022-10-16T04:51:26;13.10;99.90
16838;DHT22;19510;54.486;9.046;2022-10-16T04:53:53;13.10;99.90
16838;DHT22;19510;54.486;9.046;2022-10-16T04:56:20;13.20;99.90
16838;DHT22;19510;54.486;9.046;2022-10-16T04:58:46;13.10;99.90
16838;DHT22;19510;54.486;9.046;2022-10-16T05:01:12;13.10;99.90
16838;DHT22;19510;54.486;9.046;2022-10-16T05:03:38;13.10;99.90
16838;DHT22;19510;54.486;9.046;2022-10-16T05:06:06;13.20;99.90
16838;DHT22;19510;54.486;9.046;2022-10-16T05:08:31;13.20;99.90
16838;DHT22;19510;54.486;9.046;2022-10-16T05:10:57;13.20;99.90
16838;DHT22;19510;54.486;9.046;2022-10-16T05:13:23;13.10;99.90
16838;DHT22;19510;54.486;9.046;2022-10-16T05:15:48;13.20;99.90
16838;DHT22;19510;54.486;9.046;2022-10-16T05:18:15;13.20;99.90
16838;DHT22;19510;54.486;9.046;2022-10-16T05:20:41;13.20;99.90
16838;DHT22;19510;54.486;9.046;2022-10-16T05:23:07;13.20;99.90
16838;DHT22;19510;54.486;9.046;2022-10-16T05:25:33;13.20;99.90
16838;DHT22;19510;54.486;9.046;2022-10-16T05:27:58;13.20;99.90
16838;DHT22;19510;54.486;9.046;2022-10-16T05:30:24;13.20;99.90
16838;DHT22;19510;54.486;9.046;2022-10-16T05:32:51;13.20;99.90
16838;DHT22;19510;54.486;9.046;2022-10-16T05:35:19;13.20;99.90
16838;DHT22;19510;54.486;9.046;2022-10-16T05:37:46;13.20;99.90
16838;DHT22;19510;54.486;9.046;2022-10-16T05:40:12;13.20;99.90
16838;DHT22;19510;54.486;9.046;2022-10-16T05:42:39;13.10;99.90
16838;DHT22;19510;54.486;9.046;2022-10-16T05:45:06;13.20;99.90
16838;DHT22;19510;54.486;9.046;2022-10-16T05:47:32;13.20;99.90
16838;DHT22;19510;54.486;9.046;2022-10-16T05:49:57;13.20;99.90
16838;DHT22;19510;54.486;9.046;2022-10-16T05:52:23;13.20;99.90
16838;DHT22;19510;54.486;9.046;2022-10-16T05:54:49;13.20;99.90
16838;DHT22;19510;54.486;9.046;2022-10-16T05:57:19;13.20;99.90
16838;DHT22;19510;54.486;9.046;2022-10-16T05:59:44;13.20;99.90
16838;DHT22;19510;54.486;9.046;2022-10-16T06:02:14;13.20;99.90
16838;DHT22;19510;54.486;9.046;2022-10-16T06:04:41;13.20;99.90
16838;DHT22;19510;54.486;9.046;2022-10-16T06:07:07;13.20;99.90
16838;DHT22;19510;54.486;9.046;2022-10-16T06:09:33;13.20;99.90
16838;DHT22;19510;54.486;9.046;2022-10-16T06:11:59;13.30;99.90
16838;DHT22;19510;54.486;9.046;2022-10-16T06:14:24;13.30;99.90
16838;DHT22;19510;54.486;9.046;2022-10-16T06:16:50;13.20;99.90
16838;DHT22;19510;54.486;9.046;2022-10-16T06:19:16;13.30;99.90
16838;DHT22;19510;54.486;9.046;2022-10-16T06:21:43;13.20;99.90
16838;DHT22;19510;54.486;9.046;2022-10-16T06:24:11;13.20;99.90
16838;DHT22;19510;54.486;9.046;2022-10-16T06:26:37;13.20;99.90
16838;DHT22;19510;54.486;9.046;2022-10-16T06:29:03;13.20;99.90
16838;DHT22;19510;54.486;9.046;2022-10-16T06:31:34;13.20;99.90
16838;DHT22;19510;54.486;9.046;2022-10-16T06:34:02;13.20;99.90
16838;DHT22;19510;54.486;9.046;2022-10-16T06:36:32;13.20;99.90
16838;DHT22;19510;54.486;9.046;2022-10-16T06:38:57;13.20;99.90
16838;DHT22;19510;54.486;9.046;2022-10-16T06:41:23;13.20;99.90
16838;DHT22;19510;54.486;9.046;2022-10-16T06:43:49;13.20;99.90
16838;DHT22;19510;54.486;9.046;2022-10-16T06:46:17;13.30;99.90
16838;DHT22;19510;54.486;9.046;2022-10-16T06:48:43;13.20;99.90
16838;DHT22;19510;54.486;9.046;2022-10-16T06:51:11;13.30;99.90
16838;DHT22;19510;54.486;9.046;2022-10-16T06:53:40;13.30;99.90
16838;DHT22;19510;54.486;9.046;2022-10-16T06:58:33;13.30;99.90
16838;DHT22;19510;54.486;9.046;2022-10-16T07:01:00;13.30;99.90
16838;DHT22;19510;54.486;9.046;2022-10-16T07:03:26;13.30;99.90
16838;DHT22;19510;54.486;9.046;2022-10-16T07:05:51;13.40;99.90
16838;DHT22;19510;54.486;9.046;2022-10-16T07:08:19;13.40;99.90
16838;DHT22;19510;54.486;9.046;2022-10-16T07:10:45;13.40;99.90
16838;DHT22;19510;54.486;9.046;2022-10-16T07:13:11;13.50;99.90
16838;DHT22;19510;54.486;9.046;2022-10-16T07:15:40;13.60;99.90
16838;DHT22;19510;54.486;9.046;2022-10-16T07:18:06;13.60;99.90
16838;DHT22;19510;54.486;9.046;2022-10-16T07:20:32;13.60;99.90
16838;DHT22;19510;54.486;9.046;2022-10-16T07:22:58;13.70;99.90
16838;DHT22;19510;54.486;9.046;2022-10-16T07:25:23;13.70;99.90
16838;DHT22;19510;54.486;9.046;2022-10-16T07:27:51;13.70;99.90
16838;DHT22;19510;54.486;9.046;2022-10-16T07:30:17;13.70;99.90
16838;DHT22;19510;54.486;9.046;2022-10-16T07:32:42;13.70;99.90
16838;DHT22;19510;54.486;9.046;2022-10-16T07:35:08;13.70;99.90
16838;DHT22;19510;54.486;9.046;2022-10-16T07:37:34;13.70;99.90
16838;DHT22;19510;54.486;9.046;2022-10-16T07:39:59;13.70;99.90
16838;DHT22;19510;54.486;9.046;2022-10-16T07:42:26;13.70;99.90
16838;DHT22;19510;54.486;9.046;2022-10-16T07:44:52;13.80;99.90
16838;DHT22;19510;54.486;9.046;2022-10-16T07:47:18;13.80;99.90
16838;DHT22;19510;54.486;9.046;2022-10-16T07:49:43;13.80;99.90
16838;DHT22;19510;54.486;9.046;2022-10-16T07:52:11;13.80;99.90
16838;DHT22;19510;54.486;9.046;2022-10-16T07:54:37;13.90;99.90
16838;DHT22;19510;54.486;9.046;2022-10-16T07:57:03;13.90;99.90
16838;DHT22;19510;54.486;9.046;2022-10-16T07:59:28;14.00;99.90
16838;DHT22;19510;54.486;9.046;2022-10-16T08:01:54;14.00;99.90
16838;DHT22;19510;54.486;9.046;2022-10-16T08:04:19;14.00;99.90
16838;DHT22;19510;54.486;9.046;2022-10-16T08:06:45;14.00;99.90
16838;DHT22;19510;54.486;9.046;2022-10-16T08:09:11;14.10;99.90
16838;DHT22;19510;54.486;9.046;2022-10-16T08:11:36;14.10;99.90
16838;DHT22;19510;54.486;9.046;2022-10-16T08:14:04;14.20;99.90
16838;DHT22;19510;54.486;9.046;2022-10-16T08:16:30;14.20;99.90
16838;DHT22;19510;54.486;9.046;2022-10-16T08:18:55;14.20;99.90
16838;DHT22;19510;54.486;9.046;2022-10-16T08:21:22;14.20;99.90
16838;DHT22;19510;54.486;9.046;2022-10-16T08:23:51;14.30;99.90
16838;DHT22;19510;54.486;9.046;2022-10-16T08:26:18;14.30;99.90
16838;DHT22;19510;54.486;9.046;2022-10-16T08:28:44;14.30;99.90
16838;DHT22;19510;54.486;9.046;2022-10-16T08:31:13;14.30;99.90
16838;DHT22;19510;54.486;9.046;2022-10-16T08:33:40;14.40;99.90
16838;DHT22;19510;54.486;9.046;2022-10-16T08:36:06;14.40;99.90
16838;DHT22;19510;54.486;9.046;2022-10-16T08:38:33;14.40;99.90
16838;DHT22;19510;54.486;9.046;2022-10-16T08:44:31;14.50;99.90
16838;DHT22;19510;54.486;9.046;2022-10-16T08:49:26;14.60;99.90
16838;DHT22;19510;54.486;9.046;2022-10-16T08:51:55;14.60;99.90
16838;DHT22;19510;54.486;9.046;2022-10-16T08:54:35;14.60;99.90
16838;DHT22;19510;54.486;9.046;2022-10-16T08:57:20;14.60;99.90
16838;DHT22;19510;54.486;9.046;2022-10-16T08:59:46;14.60;99.90
16838;DHT22;19510;54.486;9.046;2022-10-16T09:02:37;14.70;99.90
16838;DHT22;19510;54.486;9.046;2022-10-16T09:08:28;14.60;99.90
16838;DHT22;19510;54.486;9.046;2022-10-16T09:16:57;14.70;99.90
16838;DHT22;19510;54.486;9.046;2022-10-16T09:19:31;14.70;99.90
16838;DHT22;19510;54.486;9.046;2022-10-16T09:22:01;14.80;99.90
16838;DHT22;19510;54.486;9.046;2022-10-16T09:24:30;14.90;99.90
16838;DHT22;19510;54.486;9.046;2022-10-16T09:26:56;14.90;99.90
16838;DHT22;19510;54.486;9.046;2022-10-16T09:29:24;14.90;99.90
16838;DHT22;19510;54.486;9.046;2022-10-16T09:31:51;15.00;99.90
16838;DHT22;19510;54.486;9.046;2022-10-16T09:34:34;15.00;99.90
16838;DHT22;19510;54.486;9.046;2022-10-16T09:37:05;15.10;99.90
16838;DHT22;19510;54.486;9.046;2022-10-16T09:39:54;15.10;99.90
16838;DHT22;19510;54.486;9.046;2022-10-16T09:42:21;15.20;99.90
16838;DHT22;19510;54.486;9.046;2022-10-16T09:44:49;15.20;99.90
16838;DHT22;19510;54.486;9.046;2022-10-16T09:47:23;15.20;99.90
16838;DHT22;19510;54.486;9.046;2022-10-16T09:49:58;15.20;99.90
16838;DHT22;19510;54.486;9.046;2022-10-16T09:52:27;15.20;99.90
16838;DHT22;19510;54.486;9.046;2022-10-16T09:55:02;15.20;99.90
16838;DHT22;19510;54.486;9.046;2022-10-16T09:57:33;15.30;99.90
16838;DHT22;19510;54.486;9.046;2022-10-16T10:00:09;15.30;99.90
16838;DHT22;19510;54.486;9.046;2022-10-16T10:02:36;15.40;99.90
16838;DHT22;19510;54.486;9.046;2022-10-16T10:05:05;15.40;99.90
16838;DHT22;19510;54.486;9.046;2022-10-16T10:07:35;15.40;99.90
16838;DHT22;19510;54.486;9.046;2022-10-16T10:10:04;15.40;99.90
16838;DHT22;19510;54.486;9.046;2022-10-16T10:12:32;15.40;99.90
16838;DHT22;19510;54.486;9.046;2022-10-16T10:15:11;15.40;99.90
16838;DHT22;19510;54.486;9.046;2022-10-16T10:17:47;15.50;99.90
16838;DHT22;19510;54.486;9.046;2022-10-16T10:22:48;15.70;99.90
16838;DHT22;19510;54.486;9.046;2022-10-16T10:30:27;15.80;99.90
16838;DHT22;19510;54.486;9.046;2022-10-16T10:33:12;15.80;99.90
16838;DHT22;19510;54.486;9.046;2022-10-16T10:38:53;15.90;99.90
16838;DHT22;19510;54.486;9.046;2022-10-16T10:44:16;16.00;99.90
16838;DHT22;19510;54.486;9.046;2022-10-16T10:46:51;16.10;99.90
16838;DHT22;19510;54.486;9.046;2022-10-16T10:52:54;16.20;99.90
16838;DHT22;19510;54.486;9.046;2022-10-16T11:01:04;16.30;99.90
16838;DHT22;19510;54.486;9.046;2022-10-16T11:03:45;16.40;99.90
16838;DHT22;19510;54.486;9.046;2022-10-16T11:06:19;16.50;99.90
16838;DHT22;19510;54.486;9.046;2022-10-16T11:09:00;16.60;99.90
16838;DHT22;19510;54.486;9.046;2022-10-16T11:11:44;16.70;99.90
16838;DHT22;19510;54.486;9.046;2022-10-16T11:14:46;16.80;99.90
16838;DHT22;19510;54.486;9.046;2022-10-16T11:17:22;16.80;99.90
16838;DHT22;19510;54.486;9.046;2022-10-16T11:19:53;16.80;99.90
16838;DHT22;19510;54.486;9.046;2022-10-16T11:25:13;16.90;99.90
16838;DHT22;19510;54.486;9.046;2022-10-16T11:27:51;16.90;99.90
16838;DHT22;19510;54.486;9.046;2022-10-16T11:30:31;17.00;99.90
16838;DHT22;19510;54.486;9.046;2022-10-16T11:35:51;17.10;99.90
16838;DHT22;19510;54.486;9.046;2022-10-16T11:40:48;17.10;99.90
16838;DHT22;19510;54.486;9.046;2022-10-16T11:43:34;17.20;99.90
16838;DHT22;19510;54.486;9.046;2022-10-16T11:46:13;17.30;99.90
16838;DHT22;19510;54.486;9.046;2022-10-16T11:48:57;17.20;99.90
16838;DHT22;19510;54.486;9.046;2022-10-16T11:52:33;17.00;99.90
16838;DHT22;19510;54.486;9.046;2022-10-16T11:54:45;17.00;99.90
16838;DHT22;19510;54.486;9.046;2022-10-16T11:57:24;17.00;99.90
16838;DHT22;19510;54.486;9.046;2022-10-16T12:00:02;17.00;99.90
16838;DHT22;19510;54.486;9.046;2022-10-16T12:08:17;17.20;99.90
16838;DHT22;19510;54.486;9.046;2022-10-16T12:10:45;17.30;99.90
16838;DHT22;19510;54.486;9.046;2022-10-16T12:13:31;17.30;99.90
16838;DHT22;19510;54.486;9.046;2022-10-16T12:16:06;17.30;99.90
16838;DHT22;19510;54.486;9.046;2022-10-16T12:18:32;17.20;99.90
16838;DHT22;19510;54.486;9.046;2022-10-16T12:20:58;17.20;99.90
16838;DHT22;19510;54.486;9.046;2022-10-16T12:23:30;17.20;99.90
16838;DHT22;19510;54.486;9.046;2022-10-16T12:26:01;17.20;99.90
16838;DHT22;19510;54.486;9.046;2022-10-16T12:28:29;17.30;99.90
16838;DHT22;19510;54.486;9.046;2022-10-16T12:31:02;17.20;99.90
16838;DHT22;19510;54.486;9.046;2022-10-16T12:33:35;17.20;99.90
16838;DHT22;19510;54.486;9.046;2022-10-16T12:36:04;17.10;99.90
16838;DHT22;19510;54.486;9.046;2022-10-16T12:38:51;17.00;99.90
16838;DHT22;19510;54.486;9.046;2022-10-16T12:41:39;17.00;99.90
16838;DHT22;19510;54.486;9.046;2022-10-16T12:44:20;16.90;99.90
16838;DHT22;19510;54.486;9.046;2022-10-16T12:46:46;16.90;99.90
16838;DHT22;19510;54.486;9.046;2022-10-16T12:51:40;16.80;99.90
16838;DHT22;19510;54.486;9.046;2022-10-16T12:54:18;16.70;99.90
16838;DHT22;19510;54.486;9.046;2022-10-16T13:08:05;16.90;99.90
16838;DHT22;19510;54.486;9.046;2022-10-16T13:10:42;17.00;99.90
16838;DHT22;19510;54.486;9.046;2022-10-16T13:23:56;17.00;99.90
16838;DHT22;19510;54.486;9.046;2022-10-16T13:26:36;16.90;99.90
16838;DHT22;19510;54.486;9.046;2022-10-16T13:29:04;17.00;99.90
16838;DHT22;19510;54.486;9.046;2022-10-16T13:31:32;17.00;99.90
16838;DHT22;19510;54.486;9.046;2022-10-16T13:34:00;16.90;99.90
16838;DHT22;19510;54.486;9.046;2022-10-16T13:36:34;16.80;99.90
16838;DHT22;19510;54.486;9.046;2022-10-16T13:41:35;16.70;99.90
16838;DHT22;19510;54.486;9.046;2022-10-16T13:44:00;16.70;99.90
16838;DHT22;19510;54.486;9.046;2022-10-16T13:46:26;16.80;99.90
16838;DHT22;19510;54.486;9.046;2022-10-16T13:49:03;17.00;99.90
16838;DHT22;19510;54.486;9.046;2022-10-16T13:51:30;17.00;99.90
16838;DHT22;19510;54.486;9.046;2022-10-16T13:53:57;17.00;99.90
16838;DHT22;19510;54.486;9.046;2022-10-16T13:56:26;16.90;99.90
16838;DHT22;19510;54.486;9.046;2022-10-16T13:59:07;16.80;99.90
16838;DHT22;19510;54.486;9.046;2022-10-16T14:01:47;16.70;99.90
16838;DHT22;19510;54.486;9.046;2022-10-16T14:04:14;16.70;99.90
16838;DHT22;19510;54.486;9.046;2022-10-16T14:10:07;16.60;99.90
16838;DHT22;19510;54.486;9.046;2022-10-16T14:12:54;16.50;99.90
16838;DHT22;19510;54.486;9.046;2022-10-16T14:15:20;16.50;99.90
16838;DHT22;19510;54.486;9.046;2022-10-16T14:17:50;16.40;99.90
16838;DHT22;19510;54.486;9.046;2022-10-16T14:20:20;16.40;99.90
16838;DHT22;19510;54.486;9.046;2022-10-16T14:22:46;16.30;99.90
16838;DHT22;19510;54.486;9.046;2022-10-16T14:25:23;16.20;99.90
16838;DHT22;19510;54.486;9.046;2022-10-16T14:27:58;16.10;99.90
16838;DHT22;19510;54.486;9.046;2022-10-16T14:30:25;16.10;99.90
16838;DHT22;19510;54.486;9.046;2022-10-16T14:33:21;16.00;99.90
16838;DHT22;19510;54.486;9.046;2022-10-16T14:38:31;15.90;99.90
16838;DHT22;19510;54.486;9.046;2022-10-16T14:41:00;15.90;99.90
16838;DHT22;19510;54.486;9.046;2022-10-16T14:43:37;15.90;99.90
16838;DHT22;19510;54.486;9.046;2022-10-16T14:46:13;15.90;99.90
16838;DHT22;19510;54.486;9.046;2022-10-16T14:48:45;15.90;99.90
16838;DHT22;19510;54.486;9.046;2022-10-16T14:51:19;15.80;99.90
16838;DHT22;19510;54.486;9.046;2022-10-16T14:53:45;15.70;99.90
16838;DHT22;19510;54.486;9.046;2022-10-16T14:56:19;15.70;99.90
16838;DHT22;19510;54.486;9.046;2022-10-16T14:58:45;15.70;99.90
16838;DHT22;19510;54.486;9.046;2022-10-16T15:01:11;15.70;99.90
16838;DHT22;19510;54.486;9.046;2022-10-16T15:03:40;15.60;99.90
16838;DHT22;19510;54.486;9.046;2022-10-16T15:06:12;15.60;99.90
16838;DHT22;19510;54.486;9.046;2022-10-16T15:08:38;15.50;99.90
16838;DHT22;19510;54.486;9.046;2022-10-16T15:11:05;15.40;99.90
16838;DHT22;19510;54.486;9.046;2022-10-16T15:13:31;15.40;99.90
16838;DHT22;19510;54.486;9.046;2022-10-16T15:15:57;15.40;99.90
16838;DHT22;19510;54.486;9.046;2022-10-16T15:18:23;15.30;99.90
16838;DHT22;19510;54.486;9.046;2022-10-16T15:20:51;15.30;99.90
16838;DHT22;19510;54.486;9.046;2022-10-16T15:23:20;15.30;99.90
16838;DHT22;19510;54.486;9.046;2022-10-16T15:25:54;15.20;99.90
16838;DHT22;19510;54.486;9.046;2022-10-16T15:28:21;15.10;99.90
16838;DHT22;19510;54.486;9.046;2022-10-16T15:30:50;15.10;99.90
16838;DHT22;19510;54.486;9.046;2022-10-16T15:33:23;15.00;99.90
16838;DHT22;19510;54.486;9.046;2022-10-16T15:35:52;15.00;99.90
16838;DHT22;19510;54.486;9.046;2022-10-16T15:38:20;15.00;99.90
16838;DHT22;19510;54.486;9.046;2022-10-16T15:40:47;14.90;99.90
16838;DHT22;19510;54.486;9.046;2022-10-16T15:43:14;14.90;99.90
16838;DHT22;19510;54.486;9.046;2022-10-16T15:45:42;14.90;99.90
16838;DHT22;19510;54.486;9.046;2022-10-16T15:48:12;14.80;99.90
16838;DHT22;19510;54.486;9.046;2022-10-16T15:50:40;14.80;99.90
16838;DHT22;19510;54.486;9.046;2022-10-16T15:53:10;14.80;99.90
16838;DHT22;19510;54.486;9.046;2022-10-16T15:55:36;14.70;99.90
16838;DHT22;19510;54.486;9.046;2022-10-16T15:58:03;14.70;99.90
16838;DHT22;19510;54.486;9.046;2022-10-16T16:00:29;14.70;99.90
16838;DHT22;19510;54.486;9.046;2022-10-16T16:02:57;14.60;99.90
16838;DHT22;19510;54.486;9.046;2022-10-16T16:05:23;14.50;99.90
16838;DHT22;19510;54.486;9.046;2022-10-16T16:07:49;14.50;99.90
16838;DHT22;19510;54.486;9.046;2022-10-16T16:10:16;14.50;99.90
16838;DHT22;19510;54.486;9.046;2022-10-16T16:12:42;14.50;99.90
16838;DHT22;19510;54.486;9.046;2022-10-16T16:15:09;14.40;99.90
16838;DHT22;19510;54.486;9.046;2022-10-16T16:17:35;14.40;99.90
16838;DHT22;19510;54.486;9.046;2022-10-16T16:20:04;14.40;99.90
16838;DHT22;19510;54.486;9.046;2022-10-16T16:22:33;14.30;99.90
16838;DHT22;19510;54.486;9.046;2022-10-16T16:24:58;14.30;99.90
16838;DHT22;19510;54.486;9.046;2022-10-16T16:27:24;14.30;99.90
16838;DHT22;19510;54.486;9.046;2022-10-16T16:29:50;14.20;99.90
16838;DHT22;19510;54.486;9.046;2022-10-16T16:32:16;14.20;99.90
16838;DHT22;19510;54.486;9.046;2022-10-16T16:34:41;14.10;99.90
16838;DHT22;19510;54.486;9.046;2022-10-16T16:40:32;14.10;99.90
16838;DHT22;19510;54.486;9.046;2022-10-16T16:42:58;14.00;99.90
16838;DHT22;19510;54.486;9.046;2022-10-16T16:45:23;14.00;99.90
16838;DHT22;19510;54.486;9.046;2022-10-16T16:47:50;14.00;99.90
16838;DHT22;19510;54.486;9.046;2022-10-16T16:50:18;13.90;99.90
16838;DHT22;19510;54.486;9.046;2022-10-16T16:52:46;13.90;99.90
16838;DHT22;19510;54.486;9.046;2022-10-16T16:55:12;13.90;99.90
16838;DHT22;19510;54.486;9.046;2022-10-16T16:57:38;13.80;99.90
16838;DHT22;19510;54.486;9.046;2022-10-16T17:00:07;13.80;99.90
16838;DHT22;19510;54.486;9.046;2022-10-16T17:02:32;13.80;99.90
16838;DHT22;19510;54.486;9.046;2022-10-16T17:04:58;13.80;99.90
16838;DHT22;19510;54.486;9.046;2022-10-16T17:07:24;13.80;99.90
16838;DHT22;19510;54.486;9.046;2022-10-16T17:09:51;13.70;99.90
16838;DHT22;19510;54.486;9.046;2022-10-16T17:12:16;13.70;99.90
16838;DHT22;19510;54.486;9.046;2022-10-16T17:14:42;13.70;99.90
16838;DHT22;19510;54.486;9.046;2022-10-16T17:17:08;13.60;99.90
16838;DHT22;19510;54.486;9.046;2022-10-16T17:19:34;13.60;99.90
16838;DHT22;19510;54.486;9.046;2022-10-16T17:21:59;13.60;99.90
16838;DHT22;19510;54.486;9.046;2022-10-16T17:24:27;13.60;99.90
16838;DHT22;19510;54.486;9.046;2022-10-16T17:26:53;13.60;99.90